createdAt,value
2023-05-10T00:00:46.296Z,67.0587
2023-05-10T00:01:47.490Z,66.8743
2023-05-10T00:02:49.952Z,66.6540
2023-05-10T00:03:52.224Z,65.5315
2023-05-10T00:04:54.420Z,65.3367
2023-05-10T00:05:56.793Z,66.3042
2023-05-10T00:06:59.597Z,66.0345
2023-05-10T00:08:01.499Z,64.9484
2023-05-10T00:09:03.820Z,64.7164
2023-05-10T00:10:06.089Z,64.9638
2023-05-10T00:11:09.711Z,65.2939
2023-05-10T00:12:11.045Z,66.3938
2023-05-10T00:13:13.570Z,67.0082
2023-05-10T00:14:17.253Z,65.6888
2023-05-10T00:15:17.855Z,64.7486
2023-05-10T00:16:20.106Z,64.1310
2023-05-10T00:17:22.412Z,64.3625
2023-05-10T00:18:24.800Z,66.0334
2023-05-10T00:19:27.666Z,66.3667
2023-05-10T00:20:30.136Z,65.5339
2023-05-10T00:21:31.810Z,66.0534
2023-05-10T00:22:36.195Z,66.6677
2023-05-10T00:23:36.628Z,66.7335
2023-05-10T00:24:39.966Z,65.3969
2023-05-10T00:25:41.967Z,65.9634
2023-05-10T00:26:44.138Z,66.1400
2023-05-10T00:27:46.690Z,65.3065
2023-05-10T00:28:48.322Z,66.1020
2023-05-10T00:29:50.438Z,65.4682
2023-05-10T00:30:54.914Z,63.6850
2023-05-10T00:31:56.611Z,63.0839
2023-05-10T00:32:57.652Z,64.0609
2023-05-10T00:33:59.963Z,64.8021
2023-05-10T00:35:04.432Z,65.2326
2023-05-10T00:36:05.342Z,64.2665
2023-05-10T00:37:07.565Z,65.0478
2023-05-10T00:38:09.678Z,65.2907
2023-05-10T00:39:11.802Z,65.4500
2023-05-10T00:40:14.420Z,65.7032
2023-05-10T00:41:16.149Z,65.4827
2023-05-10T00:42:18.905Z,65.2700
2023-05-10T00:43:21.145Z,64.3181
2023-05-10T00:44:23.122Z,64.0477
2023-05-10T00:45:26.871Z,64.1164
2023-05-10T00:46:28.222Z,63.7696
2023-05-10T00:47:30.965Z,63.1220
2023-05-10T00:48:33.658Z,64.1922
2023-05-10T00:49:35.036Z,63.2997
2023-05-10T00:50:37.152Z,64.5838
2023-05-10T00:51:39.642Z,63.6679
2023-05-10T00:52:42.715Z,63.7295
2023-05-10T00:53:44.580Z,64.4674
2023-05-10T00:54:46.478Z,65.7928
2023-05-10T00:55:48.829Z,65.9130
2023-05-10T00:56:51.391Z,66.3923
2023-05-10T00:57:54.598Z,64.9845
2023-05-10T00:58:56.640Z,65.0131
2023-05-10T00:59:58.149Z,65.3296
2023-05-10T01:01:01.205Z,65.2931
2023-05-10T01:02:02.944Z,64.8998
2023-05-10T01:03:05.390Z,64.8704
2023-05-10T01:04:07.718Z,65.1774
2023-05-10T01:05:10.128Z,64.8001
2023-05-10T01:06:12.954Z,65.2477
2023-05-10T01:07:16.182Z,65.2168
2023-05-10T01:08:17.959Z,65.4091
2023-05-10T01:09:19.238Z,65.6885
2023-05-10T01:10:21.610Z,64.3242
2023-05-10T01:11:23.882Z,64.4130
2023-05-10T01:12:26.419Z,64.8895
2023-05-10T01:13:29.109Z,63.7346
2023-05-10T01:14:31.319Z,63.5305
2023-05-10T01:15:33.219Z,64.4308
2023-05-10T01:16:36.691Z,65.2978
2023-05-10T01:17:39.902Z,64.9985
2023-05-10T01:18:40.797Z,63.5857
2023-05-10T01:19:42.656Z,63.2704
2023-05-10T01:20:44.872Z,63.7609
2023-05-10T01:21:48.185Z,63.4575
2023-05-10T01:22:50.151Z,64.5017
2023-05-10T01:23:53.160Z,64.5293
2023-05-10T01:24:54.569Z,62.1922
2023-05-10T01:25:56.593Z,62.5026
2023-05-10T01:26:58.904Z,63.9892
2023-05-10T01:28:01.269Z,63.8834
2023-05-10T01:29:04.385Z,63.9238
2023-05-10T01:30:21.776Z,63.2630
2023-05-10T01:31:08.821Z,62.3468
2023-05-10T01:32:10.718Z,63.5074
2023-05-10T01:33:13.396Z,64.2516
2023-05-10T01:34:15.622Z,64.1912
2023-05-10T01:35:17.804Z,63.6917
2023-05-10T01:36:20.157Z,63.4804
2023-05-10T01:37:22.607Z,61.9428
2023-05-10T01:38:24.768Z,63.2775
2023-05-10T01:39:27.170Z,64.4815
2023-05-10T01:40:29.694Z,64.2547
2023-05-10T01:41:31.665Z,64.8587
2023-05-10T01:42:34.445Z,64.4260
2023-05-10T01:43:36.508Z,64.8053
2023-05-10T01:44:38.973Z,63.9380
2023-05-10T01:45:41.112Z,63.3453
2023-05-10T01:46:43.451Z,63.2685
2023-05-10T01:47:46.029Z,63.4423
2023-05-10T01:48:48.019Z,63.2872
2023-05-10T01:49:50.453Z,63.3938
2023-05-10T01:50:52.865Z,63.8511
2023-05-10T01:51:55.018Z,63.5664
2023-05-10T01:52:57.490Z,63.5083
2023-05-10T01:53:59.879Z,63.8885
2023-05-10T01:55:02.114Z,63.6641
2023-05-10T01:56:04.427Z,62.3974
2023-05-10T01:57:07.163Z,62.2214
2023-05-10T01:58:09.109Z,62.0248
2023-05-10T01:59:12.134Z,61.8297
2023-05-10T02:00:14.702Z,61.6387
2023-05-10T02:01:16.387Z,60.3839
2023-05-10T02:02:18.519Z,59.9734
2023-05-10T02:03:20.798Z,61.5756
2023-05-10T02:04:23.075Z,62.2904
2023-05-10T02:05:25.408Z,62.0930
2023-05-10T02:06:27.765Z,62.8572
2023-05-10T02:07:31.079Z,62.8288
2023-05-10T02:08:32.426Z,62.5555
2023-05-10T02:09:34.851Z,62.6735
2023-05-10T02:10:37.071Z,64.1456
2023-05-10T02:11:39.618Z,64.4907
2023-05-10T02:12:41.918Z,64.0934
2023-05-10T02:13:44.116Z,64.2595
2023-05-10T02:14:46.382Z,63.6875
2023-05-10T02:15:48.692Z,62.5110
2023-05-10T02:16:51.231Z,62.7307
2023-05-10T02:17:53.382Z,63.3660
2023-05-10T02:18:56.167Z,63.9912
2023-05-10T02:19:58.066Z,64.6955
2023-05-10T02:21:00.356Z,64.7811
2023-05-10T02:22:02.999Z,62.6175
2023-05-10T02:23:05.180Z,62.1834
2023-05-10T02:24:08.302Z,63.7058
2023-05-10T02:25:10.315Z,64.1508
2023-05-10T02:26:12.077Z,63.6908
2023-05-10T02:27:14.511Z,64.1376
2023-05-10T02:28:16.922Z,64.6081
2023-05-10T02:29:19.236Z,63.9444
2023-05-10T02:30:22.022Z,64.3078
2023-05-10T02:31:23.764Z,64.8180
2023-05-10T02:32:26.064Z,64.3781
2023-05-10T02:33:29.124Z,64.3998
2023-05-10T02:34:30.947Z,64.8554
2023-05-10T02:35:33.039Z,65.3113
2023-05-10T02:36:35.825Z,65.3872
2023-05-10T02:37:37.868Z,65.1500
2023-05-10T02:38:40.240Z,64.5412
2023-05-10T02:39:42.673Z,63.4567
2023-05-10T02:40:44.772Z,63.5592
2023-05-10T02:41:47.039Z,63.9800
2023-05-10T02:42:49.973Z,62.8145
2023-05-10T02:43:51.770Z,62.7919
2023-05-10T02:44:54.487Z,63.5187
2023-05-10T02:45:56.406Z,62.6477
2023-05-10T02:46:58.708Z,61.9098
2023-05-10T02:48:01.731Z,62.6320
2023-05-10T02:49:03.695Z,61.9777
2023-05-10T02:50:05.846Z,64.0636
2023-05-10T02:51:08.070Z,63.3694
2023-05-10T02:52:10.609Z,62.9401
2023-05-10T02:53:12.762Z,63.4336
2023-05-10T02:54:15.826Z,62.3878
2023-05-10T02:55:18.239Z,61.7344
2023-05-10T02:56:19.835Z,63.4382
2023-05-10T02:57:22.623Z,63.8458
2023-05-10T02:58:24.672Z,62.7984
2023-05-10T02:59:26.942Z,62.1574
2023-05-10T03:00:29.155Z,62.6386
2023-05-10T03:01:31.581Z,63.1663
2023-05-10T03:02:34.079Z,63.6988
2023-05-10T03:03:36.137Z,63.0868
2023-05-10T03:04:39.229Z,62.8185
2023-05-10T03:05:40.781Z,61.3055
2023-05-10T03:06:43.557Z,62.7105
2023-05-10T03:07:45.448Z,63.3104
2023-05-10T03:08:48.666Z,63.0919
2023-05-10T03:09:50.287Z,63.1919
2023-05-10T03:10:52.854Z,63.3441
2023-05-10T03:11:55.248Z,63.9910
2023-05-10T03:12:57.798Z,63.8453
2023-05-10T03:13:59.596Z,62.7080
2023-05-10T03:15:01.825Z,61.1075
2023-05-10T03:16:04.316Z,61.3443
2023-05-10T03:17:06.444Z,61.8826
2023-05-10T03:18:08.924Z,62.1365
2023-05-10T03:19:11.122Z,62.6823
2023-05-10T03:20:13.509Z,63.4472
2023-05-10T03:21:15.860Z,62.5192
2023-05-10T03:22:18.136Z,62.1015
2023-05-10T03:23:20.459Z,63.6430
2023-05-10T03:24:22.898Z,62.6012
2023-05-10T03:25:25.733Z,62.8117
2023-05-10T03:26:27.619Z,62.7053
2023-05-10T03:27:29.973Z,62.3305
2023-05-10T03:28:32.882Z,62.8806
2023-05-10T03:29:35.551Z,63.6386
2023-05-10T03:30:37.367Z,63.8783
2023-05-10T03:31:40.340Z,63.6203
2023-05-10T03:32:42.155Z,65.7992
2023-05-10T03:33:43.807Z,64.8800
2023-05-10T03:34:47.098Z,64.3119
2023-05-10T03:35:48.483Z,64.5612
2023-05-10T03:36:51.341Z,66.2457
2023-05-10T03:37:53.944Z,66.8499
2023-05-10T03:38:55.797Z,65.8754
2023-05-10T03:39:57.824Z,64.7917
2023-05-10T03:41:00.366Z,65.2344
2023-05-10T03:42:04.184Z,65.1518
2023-05-10T03:43:04.881Z,63.2702
2023-05-10T03:44:08.480Z,62.7699
2023-05-10T03:45:09.514Z,63.9296
2023-05-10T03:46:12.473Z,64.8363
2023-05-10T03:47:14.172Z,64.5575
2023-05-10T03:48:16.553Z,64.9540
2023-05-10T03:49:18.866Z,65.0640
2023-05-10T03:50:21.354Z,65.1953
2023-05-10T03:51:23.514Z,64.9213
2023-05-10T03:52:25.995Z,64.4294
2023-05-10T03:53:28.246Z,64.8153
2023-05-10T03:54:30.537Z,65.3528
2023-05-10T03:55:32.870Z,65.2129
2023-05-10T03:56:35.421Z,64.7854
2023-05-10T03:57:37.722Z,64.4055
2023-05-10T03:58:40.316Z,64.5184
2023-05-10T03:59:42.221Z,64.7960
2023-05-10T04:00:46.202Z,64.3163
2023-05-10T04:01:47.889Z,63.5394
2023-05-10T04:02:49.946Z,63.2779
2023-05-10T04:03:51.701Z,63.3508
2023-05-10T04:04:54.878Z,61.9140
2023-05-10T04:05:56.245Z,63.4963
2023-05-10T04:06:59.647Z,65.1992
2023-05-10T04:08:00.914Z,64.4542
2023-05-10T04:09:04.193Z,63.2165
2023-05-10T04:10:05.589Z,64.5099
2023-05-10T04:11:07.908Z,65.9086
2023-05-10T04:12:11.143Z,66.7229
2023-05-10T04:13:13.542Z,66.6404
2023-05-10T04:14:14.910Z,66.2725
2023-05-10T04:15:17.308Z,65.9076
2023-05-10T04:16:19.679Z,63.4581
2023-05-10T04:17:21.958Z,65.1359
2023-05-10T04:18:24.269Z,65.8762
2023-05-10T04:19:27.583Z,66.1579
2023-05-10T04:20:29.092Z,65.6431
2023-05-10T04:21:31.396Z,65.9332
2023-05-10T04:22:33.588Z,64.8630
2023-05-10T04:23:35.949Z,63.9875
2023-05-10T04:24:38.277Z,64.4743
2023-05-10T04:25:40.594Z,63.4037
2023-05-10T04:26:42.923Z,62.8842
2023-05-10T04:27:45.263Z,62.2208
2023-05-10T04:28:47.684Z,62.5975
2023-05-10T04:29:49.977Z,63.9901
2023-05-10T04:30:52.408Z,63.7024
2023-05-10T04:31:54.780Z,63.0715
2023-05-10T04:32:58.174Z,62.5166
2023-05-10T04:33:59.347Z,62.9318
2023-05-10T04:35:02.664Z,63.0754
2023-05-10T04:36:04.145Z,64.2002
2023-05-10T04:37:06.295Z,65.5080
2023-05-10T04:38:11.568Z,66.1696
2023-05-10T04:39:10.950Z,66.9427
2023-05-10T04:40:13.295Z,65.9363
2023-05-10T04:41:16.074Z,66.1757
2023-05-10T04:42:18.882Z,67.8595
2023-05-10T04:43:20.572Z,66.4570
2023-05-10T04:44:22.631Z,65.3864
2023-05-10T04:45:24.966Z,64.4131
2023-05-10T04:46:27.381Z,65.2462
2023-05-10T04:47:29.622Z,66.4225
2023-05-10T04:48:32.386Z,67.9284
2023-05-10T04:49:34.310Z,66.1558
2023-05-10T04:50:36.578Z,66.4707
2023-05-10T04:51:38.978Z,67.2326
2023-05-10T04:52:41.354Z,66.5918
2023-05-10T04:53:48.586Z,65.2677
2023-05-10T04:54:45.906Z,65.8004
2023-05-10T04:55:48.256Z,65.4498
2023-05-10T04:56:50.566Z,64.0457
2023-05-10T04:57:52.915Z,65.3288
2023-05-10T04:58:55.296Z,66.8796
2023-05-10T04:59:57.582Z,67.3319
2023-05-10T05:00:59.892Z,65.2661
2023-05-10T05:02:02.308Z,66.2700
2023-05-10T05:03:04.606Z,65.8967
2023-05-10T05:04:06.898Z,66.4309
2023-05-10T05:05:09.248Z,66.8716
2023-05-10T05:06:11.601Z,66.7862
2023-05-10T05:07:23.123Z,66.9555
2023-05-10T05:08:16.228Z,63.9361
2023-05-10T05:09:18.565Z,63.4623
2023-05-10T05:10:20.849Z,64.3414
2023-05-10T05:11:23.180Z,64.0050
2023-05-10T05:12:25.534Z,63.5694
2023-05-10T05:13:27.900Z,64.2187
2023-05-10T05:14:30.179Z,63.8577
2023-05-10T05:15:32.550Z,64.5384
2023-05-10T05:16:35.031Z,65.7551
2023-05-10T05:17:37.184Z,64.7486
2023-05-10T05:18:39.526Z,63.4538
2023-05-10T05:19:41.841Z,62.8661
2023-05-10T05:20:44.151Z,63.6799
2023-05-10T05:21:46.518Z,64.3346
2023-05-10T05:22:48.810Z,63.1555
2023-05-10T05:23:51.156Z,63.8573
2023-05-10T05:24:53.480Z,65.3625
2023-05-10T05:25:55.832Z,66.0753
2023-05-10T05:26:58.170Z,64.6380
2023-05-10T05:28:00.541Z,64.1555
2023-05-10T05:29:02.815Z,62.1659
2023-05-10T05:30:05.166Z,63.1089
2023-05-10T05:31:07.585Z,63.6753
2023-05-10T05:32:09.911Z,63.3794
2023-05-10T05:33:12.162Z,63.2123
2023-05-10T05:34:14.624Z,62.4060
2023-05-10T05:35:17.116Z,61.7245
2023-05-10T05:36:19.206Z,63.7998
2023-05-10T05:37:21.548Z,64.9368
2023-05-10T05:38:23.865Z,65.0257
2023-05-10T05:39:26.190Z,65.0314
2023-05-10T05:40:28.533Z,62.4926
2023-05-10T05:41:30.866Z,63.1134
2023-05-10T05:42:33.213Z,62.6590
2023-05-10T05:43:38.028Z,63.6472
2023-05-10T05:44:37.882Z,63.4319
2023-05-10T05:45:40.216Z,62.4542
2023-05-10T05:46:42.577Z,63.6972
2023-05-10T05:47:44.992Z,63.7235
2023-05-10T05:48:47.216Z,64.1065
2023-05-10T05:49:49.808Z,64.5592
2023-05-10T05:50:51.859Z,64.3650
2023-05-10T05:51:54.481Z,63.5275
2023-05-10T05:52:56.558Z,63.6834
2023-05-10T05:53:59.322Z,63.8856
2023-05-10T05:55:01.294Z,64.3168
2023-05-10T05:56:03.515Z,63.4433
2023-05-10T05:57:06.146Z,63.8110
2023-05-10T05:58:08.192Z,62.0800
2023-05-10T05:59:11.141Z,63.3258
2023-05-10T06:00:12.844Z,64.5570
2023-05-10T06:01:15.192Z,64.2819
2023-05-10T06:02:17.585Z,64.0213
2023-05-10T06:03:20.014Z,62.3971
2023-05-10T06:04:22.257Z,61.6136
2023-05-10T06:05:24.527Z,61.7948
2023-05-10T06:06:26.937Z,62.9767
2023-05-10T06:07:29.276Z,63.7250
2023-05-10T06:08:31.765Z,64.0202
2023-05-10T06:09:33.868Z,64.3051
2023-05-10T06:10:36.202Z,63.4476
2023-05-10T06:11:38.676Z,62.3548
2023-05-10T06:12:41.106Z,61.7383
2023-05-10T06:13:43.257Z,62.1441
2023-05-10T06:14:45.614Z,61.7886
2023-05-10T06:15:47.894Z,62.5656
2023-05-10T06:16:50.394Z,64.0121
2023-05-10T06:17:52.585Z,64.3318
2023-05-10T06:18:54.885Z,63.3402
2023-05-10T06:19:57.259Z,64.0682
2023-05-10T06:20:59.619Z,63.6820
2023-05-10T06:22:01.990Z,64.4666
2023-05-10T06:23:04.259Z,63.2282
2023-05-10T06:24:06.604Z,61.8266
2023-05-10T06:25:09.107Z,62.8257
2023-05-10T06:26:11.212Z,63.1624
2023-05-10T06:27:13.633Z,63.4062
2023-05-10T06:28:16.005Z,62.6109
2023-05-10T06:29:18.238Z,62.3418
2023-05-10T06:30:20.561Z,60.6802
2023-05-10T06:31:22.974Z,59.8215
2023-05-10T06:32:25.269Z,60.9207
2023-05-10T06:33:27.540Z,63.2073
2023-05-10T06:34:29.892Z,64.3877
2023-05-10T06:35:32.208Z,63.7984
2023-05-10T06:36:34.569Z,64.8539
2023-05-10T06:37:36.891Z,65.2758
2023-05-10T06:38:39.205Z,64.7163
2023-05-10T06:39:41.543Z,63.8971
2023-05-10T06:40:46.196Z,63.9893
2023-05-10T06:41:47.255Z,63.8829
2023-05-10T06:42:48.563Z,63.9693
2023-05-10T06:43:50.888Z,63.3602
2023-05-10T06:44:53.217Z,62.9519
2023-05-10T06:45:55.587Z,63.9835
2023-05-10T06:46:57.884Z,64.4295
2023-05-10T06:48:00.333Z,64.4710
2023-05-10T06:49:02.551Z,63.3634
2023-05-10T06:50:04.896Z,62.7594
2023-05-10T06:51:07.237Z,60.8120
2023-05-10T06:52:09.561Z,62.6400
2023-05-10T06:53:11.918Z,63.2938
2023-05-10T06:54:14.236Z,61.5233
2023-05-10T06:55:16.711Z,62.2213
2023-05-10T06:56:18.942Z,63.0023
2023-05-10T06:57:31.435Z,61.6468
2023-05-10T06:58:23.574Z,61.5027
2023-05-10T06:59:25.969Z,61.4513
2023-05-10T07:00:28.270Z,62.0010
2023-05-10T07:01:30.667Z,61.9086
2023-05-10T07:02:32.959Z,62.4716
2023-05-10T07:03:35.275Z,62.7755
2023-05-10T07:04:37.625Z,62.5460
2023-05-10T07:05:39.964Z,61.9913
2023-05-10T07:06:42.299Z,62.9227
2023-05-10T07:07:44.609Z,63.2828
2023-05-10T07:08:46.934Z,60.7391
2023-05-10T07:09:49.262Z,61.8453
2023-05-10T07:10:51.616Z,63.1385
2023-05-10T07:11:53.962Z,63.5168
2023-05-10T07:12:56.358Z,62.1977
2023-05-10T07:13:58.595Z,62.4400
2023-05-10T07:15:01.016Z,62.5216
2023-05-10T07:16:03.696Z,62.2765
2023-05-10T07:17:05.686Z,63.0227
2023-05-10T07:18:08.047Z,62.0014
2023-05-10T07:19:10.286Z,62.4961
2023-05-10T07:20:12.591Z,62.6429
2023-05-10T07:21:15.203Z,62.0465
2023-05-10T07:22:17.285Z,62.3540
2023-05-10T07:23:19.795Z,61.7395
2023-05-10T07:24:21.934Z,60.0804
2023-05-10T07:25:24.633Z,61.0598
2023-05-10T07:26:26.602Z,59.6724
2023-05-10T07:27:28.973Z,59.8534
2023-05-10T07:28:31.296Z,60.2253
2023-05-10T07:29:33.602Z,61.0014
2023-05-10T07:30:36.272Z,60.8614
2023-05-10T07:31:38.352Z,61.4465
2023-05-10T07:32:40.759Z,61.6922
2023-05-10T07:33:43.047Z,61.9586
2023-05-10T07:34:45.476Z,61.7505
2023-05-10T07:35:47.608Z,60.9862
2023-05-10T07:36:50.180Z,59.9834
2023-05-10T07:37:52.270Z,60.3158
2023-05-10T07:38:54.723Z,59.2401
2023-05-10T07:39:56.963Z,60.0978
2023-05-10T07:40:59.589Z,61.5601
2023-05-10T07:42:01.616Z,62.4545
2023-05-10T07:43:05.336Z,62.6108
2023-05-10T07:44:06.378Z,61.3647
2023-05-10T07:45:08.605Z,61.9039
2023-05-10T07:46:11.461Z,62.5170
2023-05-10T07:47:13.395Z,60.4615
2023-05-10T07:48:15.740Z,60.9305
2023-05-10T07:49:18.024Z,62.7105
2023-05-10T07:50:20.309Z,62.0753
2023-05-10T07:51:22.670Z,62.0805
2023-05-10T07:52:25.003Z,60.5804
2023-05-10T07:53:27.321Z,61.6779
2023-05-10T07:54:29.675Z,62.7147
2023-05-10T07:55:32.011Z,63.1160
2023-05-10T07:56:34.414Z,63.6977
2023-05-10T07:57:36.704Z,61.9271
2023-05-10T07:58:39.018Z,63.3302
2023-05-10T07:59:41.352Z,63.2689
2023-05-10T08:00:43.678Z,62.9328
2023-05-10T08:01:46.040Z,62.6712
2023-05-10T08:02:48.440Z,62.9765
2023-05-10T08:03:50.749Z,62.4685
2023-05-10T08:04:52.996Z,62.6323
2023-05-10T08:05:55.312Z,61.6543
2023-05-10T08:06:57.659Z,63.3920
2023-05-10T08:08:00.064Z,64.2198
2023-05-10T08:09:02.415Z,64.2281
2023-05-10T08:10:05.410Z,64.7349
2023-05-10T08:11:06.967Z,63.4088
2023-05-10T08:12:09.620Z,64.3630
2023-05-10T08:13:11.676Z,62.3436
2023-05-10T08:14:13.986Z,59.4324
2023-05-10T08:15:16.553Z,60.7782
2023-05-10T08:16:18.730Z,59.7257
2023-05-10T08:17:22.100Z,61.0780
2023-05-10T08:18:23.376Z,62.2117
2023-05-10T08:19:25.633Z,62.2542
2023-05-10T08:20:27.971Z,63.8006
2023-05-10T08:21:30.307Z,65.0486
2023-05-10T08:22:32.640Z,64.4415
2023-05-10T08:23:34.993Z,63.8056
2023-05-10T08:24:37.315Z,65.0033
2023-05-10T08:25:39.638Z,65.5827
2023-05-10T08:26:41.950Z,64.9832
2023-05-10T08:27:44.298Z,64.1235
2023-05-10T08:28:46.632Z,64.2490
2023-05-10T08:29:50.462Z,64.3933
2023-05-10T08:30:51.265Z,62.9785
2023-05-10T08:31:53.688Z,62.2177
2023-05-10T08:32:55.970Z,63.5021
2023-05-10T08:33:58.360Z,64.2909
2023-05-10T08:35:00.608Z,64.6733
2023-05-10T08:36:02.947Z,64.8575
2023-05-10T08:37:05.265Z,64.5470
2023-05-10T08:38:07.588Z,62.2443
2023-05-10T08:39:22.837Z,61.5391
2023-05-10T08:40:12.275Z,62.6476
2023-05-10T08:41:14.585Z,63.4895
2023-05-10T08:42:16.925Z,62.4716
2023-05-10T08:43:19.295Z,63.1030
2023-05-10T08:44:21.642Z,63.6463
2023-05-10T08:45:23.941Z,63.3804
2023-05-10T08:46:26.341Z,62.5539
2023-05-10T08:47:28.624Z,62.2834
2023-05-10T08:48:30.918Z,62.1995
2023-05-10T08:49:33.308Z,61.7455
2023-05-10T08:50:35.595Z,63.4459
2023-05-10T08:51:37.910Z,61.4989
2023-05-10T08:52:40.249Z,61.2484
2023-05-10T08:53:42.573Z,61.8977
2023-05-10T08:54:44.953Z,62.8064
2023-05-10T08:55:47.230Z,61.2931
2023-05-10T08:56:49.982Z,62.0270
2023-05-10T08:57:51.902Z,61.6354
2023-05-10T08:58:54.365Z,59.5794
2023-05-10T08:59:56.652Z,60.4198
2023-05-10T09:00:58.937Z,59.4601
2023-05-10T09:02:01.244Z,58.9544
2023-05-10T09:03:03.633Z,58.9844
2023-05-10T09:04:05.981Z,58.2005
2023-05-10T09:05:08.395Z,60.1550
2023-05-10T09:06:10.756Z,60.7600
2023-05-10T09:07:12.973Z,61.3925
2023-05-10T09:08:15.249Z,60.3871
2023-05-10T09:09:17.555Z,61.7938
2023-05-10T09:10:19.989Z,62.7060
2023-05-10T09:11:22.238Z,62.3428
2023-05-10T09:12:25.774Z,63.1708
2023-05-10T09:13:26.966Z,63.3912
2023-05-10T09:14:29.261Z,62.3357
2023-05-10T09:15:31.571Z,60.3699
2023-05-10T09:16:34.245Z,58.0403
2023-05-10T09:17:36.586Z,57.7479
2023-05-10T09:18:38.688Z,61.5272
2023-05-10T09:19:41.683Z,62.9781
2023-05-10T09:20:43.322Z,62.2995
2023-05-10T09:21:46.024Z,60.9812
2023-05-10T09:22:47.940Z,59.9952
2023-05-10T09:23:50.821Z,59.7940
2023-05-10T09:24:52.674Z,58.5839
2023-05-10T09:25:55.032Z,58.5820
2023-05-10T09:26:57.303Z,58.9196
2023-05-10T09:27:59.567Z,58.6680
2023-05-10T09:29:01.888Z,59.2506
2023-05-10T09:30:04.271Z,58.0745
2023-05-10T09:31:06.728Z,57.1839
2023-05-10T09:32:08.928Z,58.1736
2023-05-10T09:33:12.142Z,58.6579
2023-05-10T09:34:13.640Z,56.6108
2023-05-10T09:35:16.289Z,56.0973
2023-05-10T09:36:18.247Z,57.3948
2023-05-10T09:37:20.595Z,57.8597
2023-05-10T09:38:22.937Z,59.1165
2023-05-10T09:39:25.232Z,61.4038
2023-05-10T09:40:28.572Z,60.0146
2023-05-10T09:41:30.124Z,59.5142
2023-05-10T09:42:32.296Z,59.3410
2023-05-10T09:43:34.636Z,59.8313
2023-05-10T09:44:37.021Z,60.2225
2023-05-10T09:45:39.441Z,59.6534
2023-05-10T09:46:41.806Z,59.9258
2023-05-10T09:47:44.625Z,60.1958
2023-05-10T09:48:46.314Z,60.4625
2023-05-10T09:49:48.875Z,59.6937
2023-05-10T09:50:51.065Z,58.4723
2023-05-10T09:51:53.483Z,56.2683
2023-05-10T09:52:55.825Z,57.4508
2023-05-10T09:53:57.988Z,59.9329
2023-05-10T09:55:00.414Z,59.9308
2023-05-10T09:56:02.827Z,60.6311
2023-05-10T09:57:05.000Z,59.8937
2023-05-10T09:58:07.449Z,59.2180
2023-05-10T09:59:09.678Z,59.6235
2023-05-10T10:00:12.070Z,58.7406
2023-05-10T10:01:14.346Z,58.4077
2023-05-10T10:02:17.973Z,59.4024
2023-05-10T10:03:19.588Z,60.2209
2023-05-10T10:04:21.406Z,59.6660
2023-05-10T10:05:23.922Z,58.5704
2023-05-10T10:06:30.068Z,58.5939
2023-05-10T10:07:28.456Z,57.7829
2023-05-10T10:08:30.823Z,58.1594
2023-05-10T10:09:33.117Z,58.1730
2023-05-10T10:10:35.446Z,58.9311
2023-05-10T10:11:37.692Z,58.5251
2023-05-10T10:12:40.286Z,57.7363
2023-05-10T10:13:42.508Z,56.6480
2023-05-10T10:14:44.848Z,57.3581
2023-05-10T10:15:47.899Z,55.9985
2023-05-10T10:17:05.873Z,56.6893
2023-05-10T10:17:51.793Z,57.1352
2023-05-10T10:18:54.107Z,56.2882
2023-05-10T10:19:56.434Z,57.1849
2023-05-10T10:20:58.722Z,57.8677
2023-05-10T10:22:01.459Z,57.4565
2023-05-10T10:23:03.399Z,56.5704
2023-05-10T10:24:05.804Z,57.5848
2023-05-10T10:25:08.089Z,57.6083
2023-05-10T10:26:10.429Z,57.3927
2023-05-10T10:27:12.759Z,56.3512
2023-05-10T10:28:15.151Z,55.7109
2023-05-10T10:29:17.438Z,55.6587
2023-05-10T10:30:19.840Z,54.7738
2023-05-10T10:31:22.337Z,54.8296
2023-05-10T10:32:24.583Z,56.1325
2023-05-10T10:33:28.772Z,57.8302
2023-05-10T10:34:29.194Z,56.9332
2023-05-10T10:35:31.659Z,55.7795
2023-05-10T10:36:33.913Z,56.9022
2023-05-10T10:37:36.311Z,55.2276
2023-05-10T10:38:38.555Z,54.3637
2023-05-10T10:39:40.850Z,54.4574
2023-05-10T10:40:43.178Z,55.0698
2023-05-10T10:41:45.686Z,55.8774
2023-05-10T10:42:48.189Z,57.7118
2023-05-10T10:43:50.777Z,56.8838
2023-05-10T10:44:53.358Z,56.9301
2023-05-10T10:45:54.893Z,56.4060
2023-05-10T10:46:57.330Z,55.6229
2023-05-10T10:48:00.273Z,55.5227
2023-05-10T10:49:01.906Z,57.0010
2023-05-10T10:50:04.233Z,54.9781
2023-05-10T10:51:07.217Z,54.9311
2023-05-10T10:52:08.905Z,57.6994
2023-05-10T10:53:11.342Z,56.2744
2023-05-10T10:54:13.594Z,55.2496
2023-05-10T10:55:16.397Z,55.8284
2023-05-10T10:56:18.263Z,55.6363
2023-05-10T10:57:21.157Z,56.0724
2023-05-10T10:58:22.975Z,57.2272
2023-05-10T10:59:25.308Z,56.5479
2023-05-10T11:00:27.715Z,54.3296
2023-05-10T11:01:29.968Z,53.3351
2023-05-10T11:02:32.653Z,52.9112
2023-05-10T11:03:35.080Z,53.2827
2023-05-10T11:04:37.064Z,52.5242
2023-05-10T11:05:40.109Z,52.9922
2023-05-10T11:06:41.663Z,51.5821
2023-05-10T11:07:44.643Z,53.0836
2023-05-10T11:08:46.340Z,55.5599
2023-05-10T11:09:48.697Z,56.0426
2023-05-10T11:10:51.001Z,53.8974
2023-05-10T11:11:53.596Z,55.0012
2023-05-10T11:12:55.677Z,53.8222
2023-05-10T11:13:58.497Z,54.1695
2023-05-10T11:15:00.352Z,54.6274
2023-05-10T11:16:03.008Z,54.8148
2023-05-10T11:17:05.457Z,55.4594
2023-05-10T11:18:07.764Z,56.2764
2023-05-10T11:19:10.070Z,55.3890
2023-05-10T11:20:12.733Z,53.5843
2023-05-10T11:21:14.366Z,52.5957
2023-05-10T11:22:16.685Z,55.0280
2023-05-10T11:23:19.073Z,55.8986
2023-05-10T11:24:21.449Z,55.0835
2023-05-10T11:25:25.021Z,53.4126
2023-05-10T11:26:27.240Z,50.6109
2023-05-10T11:27:29.030Z,50.2496
2023-05-10T11:28:31.667Z,51.8459
2023-05-10T11:29:33.108Z,56.3272
2023-05-10T11:30:35.420Z,57.8258
2023-05-10T11:31:37.712Z,56.7764
2023-05-10T11:32:40.291Z,57.4517
2023-05-10T11:33:43.524Z,56.8399
2023-05-10T11:34:44.921Z,57.2919
2023-05-10T11:35:47.057Z,56.1997
2023-05-10T11:36:50.036Z,56.3130
2023-05-10T11:37:51.712Z,58.0755
2023-05-10T11:38:54.065Z,57.7188
2023-05-10T11:39:57.582Z,57.8881
2023-05-10T11:40:59.185Z,57.0220
2023-05-10T11:42:01.259Z,54.3296
2023-05-10T11:43:04.096Z,54.7334
2023-05-10T11:44:05.885Z,51.1658
2023-05-10T11:45:08.094Z,50.9034
2023-05-10T11:46:10.600Z,50.0038
2023-05-10T11:47:13.132Z,49.9477
2023-05-10T11:48:15.183Z,50.9949
2023-05-10T11:49:17.436Z,50.2898
2023-05-10T11:50:19.982Z,48.9823
2023-05-10T11:51:22.080Z,49.2824
2023-05-10T11:52:24.973Z,49.9608
2023-05-10T11:53:26.863Z,52.3532
2023-05-10T11:54:30.141Z,54.1665
2023-05-10T11:55:31.457Z,51.2528
2023-05-10T11:56:34.506Z,50.9647
2023-05-10T11:57:36.101Z,49.9045
2023-05-10T11:58:39.183Z,50.6599
2023-05-10T11:59:43.075Z,52.3823
2023-05-10T12:00:43.440Z,54.4820
2023-05-10T12:01:45.457Z,51.9300
2023-05-10T12:02:47.940Z,50.2550
2023-05-10T12:03:50.654Z,52.6563
2023-05-10T12:04:53.145Z,53.5391
2023-05-10T12:05:55.474Z,53.5097
2023-05-10T12:06:57.293Z,53.8195
2023-05-10T12:07:59.479Z,55.2145
2023-05-10T12:09:01.853Z,55.0861
2023-05-10T12:10:04.178Z,56.0738
2023-05-10T12:11:06.557Z,55.3106
2023-05-10T12:12:09.374Z,56.7352
2023-05-10T12:13:11.185Z,57.5227
2023-05-10T12:14:13.531Z,56.2939
2023-05-10T12:15:15.870Z,56.7115
2023-05-10T12:16:18.271Z,57.4537
2023-05-10T12:17:20.531Z,58.1824
2023-05-10T12:18:22.969Z,57.5797
2023-05-10T12:19:25.210Z,58.3786
2023-05-10T12:20:27.572Z,58.4453
2023-05-10T12:21:29.905Z,59.2532
2023-05-10T12:22:32.271Z,58.9602
2023-05-10T12:23:34.659Z,58.9543
2023-05-10T12:24:36.917Z,58.9999
2023-05-10T12:25:39.731Z,59.1495
2023-05-10T12:26:41.954Z,59.3201
2023-05-10T12:27:43.963Z,59.1541
2023-05-10T12:28:46.237Z,59.4323
2023-05-10T12:29:48.572Z,59.8942
2023-05-10T12:30:51.035Z,59.9312
2023-05-10T12:31:53.356Z,60.7382
2023-05-10T12:32:55.726Z,60.9254
2023-05-10T12:33:57.923Z,60.4744